createdAt,value
2022-11-13T00:02:33.690Z,7.35
2022-11-13T00:07:35.168Z,7.44
2022-11-13T00:12:36.675Z,7.41
2022-11-13T00:17:38.231Z,7.42
2022-11-13T00:22:39.745Z,7.34
2022-11-13T00:27:41.166Z,7.44
2022-11-13T00:32:42.722Z,7.45
2022-11-13T00:37:44.147Z,7.19
2022-11-13T00:42:45.663Z,7.15
2022-11-13T00:47:47.172Z,6.85
2022-11-13T00:52:48.552Z,6.94
2022-11-13T00:57:50.073Z,6.74
2022-11-13T01:02:51.645Z,6.68
2022-11-13T01:07:53.357Z,6.60
2022-11-13T01:12:54.868Z,6.38
2022-11-13T01:17:56.558Z,6.30
2022-11-13T01:22:57.963Z,6.18
2022-11-13T01:27:59.579Z,6.66
2022-11-13T01:33:01.078Z,6.70
2022-11-13T01:38:02.457Z,6.37
2022-11-13T01:43:27.048Z,6.45
2022-11-13T01:48:45.857Z,6.84
2022-11-13T01:53:48.033Z,6.85
2022-11-13T01:58:54.785Z,6.88
2022-11-13T02:03:56.267Z,6.82
2022-11-13T02:08:57.842Z,6.94
2022-11-13T02:14:00.483Z,6.87
2022-11-13T02:19:07.563Z,6.78
2022-11-13T02:24:32.751Z,6.77
2022-11-13T02:29:34.542Z,6.77
2022-11-13T02:34:36.008Z,6.84
2022-11-13T02:39:37.495Z,6.66
2022-11-13T02:44:38.968Z,6.53
2022-11-13T02:49:40.551Z,6.51
2022-11-13T02:54:41.989Z,6.72
2022-11-13T02:59:43.865Z,6.66
2022-11-13T03:05:10.776Z,6.46
2022-11-13T03:10:07.407Z,6.63
2022-11-13T03:15:09.483Z,6.68
2022-11-13T03:20:10.945Z,6.71
2022-11-13T03:25:12.431Z,6.74
2022-11-13T03:30:14.542Z,6.66
2022-11-13T03:35:16.064Z,6.68
2022-11-13T03:40:17.847Z,6.67
2022-11-13T03:45:19.315Z,6.30
2022-11-13T03:50:20.926Z,6.62
2022-11-13T03:55:22.406Z,6.50
2022-11-13T04:00:25.815Z,6.16
2022-11-13T04:05:27.652Z,6.29
2022-11-13T04:10:29.437Z,6.23
2022-11-13T04:15:30.925Z,6.43
2022-11-13T04:20:32.585Z,6.45
2022-11-13T04:25:34.007Z,6.40
2022-11-13T04:30:35.518Z,6.59
2022-11-13T04:35:37.011Z,6.35
2022-11-13T04:40:39.106Z,6.38
2022-11-13T04:45:40.548Z,6.23
2022-11-13T04:50:42.112Z,5.61
2022-11-13T04:55:43.532Z,5.99
2022-11-13T05:00:44.936Z,6.11
2022-11-13T05:05:46.524Z,5.51
2022-11-13T05:10:47.927Z,5.88
2022-11-13T05:15:49.448Z,5.50
2022-11-13T05:20:50.919Z,5.62
2022-11-13T05:25:53.217Z,5.58
2022-11-13T05:31:06.192Z,5.18
2022-11-13T05:36:15.128Z,5.55
2022-11-13T05:41:21.498Z,5.55
2022-11-13T05:46:25.608Z,5.34
2022-11-13T05:51:30.267Z,5.50
2022-11-13T05:56:35.282Z,5.48
2022-11-13T06:01:38.684Z,5.28
2022-11-13T06:06:40.330Z,5.23
2022-11-13T06:11:41.812Z,5.32
2022-11-13T06:16:43.240Z,5.07
2022-11-13T06:21:44.808Z,4.97
2022-11-13T06:26:46.234Z,5.04
2022-11-13T06:31:47.635Z,4.99
2022-11-13T06:36:49.087Z,4.77
2022-11-13T06:41:50.575Z,4.78
2022-11-13T06:46:51.963Z,4.82
2022-11-13T06:51:53.467Z,4.88
2022-11-13T06:56:54.925Z,4.79
2022-11-13T07:01:56.304Z,4.71
2022-11-13T07:06:58.077Z,4.89
2022-11-13T07:11:59.541Z,5.00
2022-11-13T07:17:10.046Z,4.90
2022-11-13T07:22:11.940Z,5.11
2022-11-13T07:27:13.359Z,4.97
2022-11-13T07:32:14.762Z,5.06
2022-11-13T07:37:16.405Z,4.95
2022-11-13T07:42:17.817Z,5.07
2022-11-13T07:47:19.250Z,5.17
2022-11-13T07:52:20.640Z,5.09
2022-11-13T07:57:22.129Z,5.44
2022-11-13T08:02:26.757Z,5.00
2022-11-13T08:07:28.395Z,4.91
2022-11-13T08:12:29.847Z,5.10
2022-11-13T08:17:31.443Z,5.38
2022-11-13T08:22:33.450Z,5.48
2022-11-13T08:27:34.877Z,5.79
2022-11-13T08:32:36.314Z,5.63
2022-11-13T08:37:37.736Z,5.31
2022-11-13T08:42:39.163Z,5.63
2022-11-13T08:47:40.638Z,5.96
2022-11-13T08:52:42.036Z,6.11
2022-11-13T08:57:43.460Z,6.09
2022-11-13T09:02:45.439Z,6.30
2022-11-13T09:07:47.272Z,6.30
2022-11-13T09:12:48.873Z,6.36
2022-11-13T09:17:50.358Z,6.34
2022-11-13T09:23:02.972Z,6.41
2022-11-13T09:28:05.434Z,6.37
2022-11-13T09:33:07.326Z,6.42
2022-11-13T09:38:14.496Z,6.66
2022-11-13T09:43:25.029Z,6.90
2022-11-13T09:48:46.675Z,6.68
2022-11-13T09:53:48.549Z,6.63
2022-11-13T09:59:00.722Z,6.47
2022-11-13T10:04:11.961Z,6.45
2022-11-13T10:09:27.250Z,6.89
2022-11-13T10:14:34.335Z,7.13
2022-11-13T10:19:58.967Z,7.68
2022-11-13T10:25:16.247Z,7.54
2022-11-13T10:30:19.296Z,7.57
2022-11-13T10:35:41.966Z,7.47
2022-11-13T10:40:43.721Z,7.61
2022-11-13T10:46:04.684Z,7.60
2022-11-13T10:51:27.427Z,7.69
2022-11-13T10:56:32.894Z,7.68
2022-11-13T11:01:35.675Z,7.61
2022-11-13T11:12:11.476Z,8.16
2022-11-13T11:17:16.659Z,8.42
2022-11-13T11:22:22.948Z,8.39
2022-11-13T11:27:39.902Z,8.37
2022-11-13T11:33:15.529Z,8.65
2022-11-13T11:38:29.497Z,8.64
2022-11-13T11:43:39.755Z,8.95
2022-11-13T11:48:41.531Z,8.86
2022-11-13T11:53:56.657Z,9.06
2022-11-13T11:59:18.928Z,9.16
2022-11-13T12:04:42.201Z,9.19
2022-11-13T12:09:46.718Z,9.16
2022-11-13T12:15:08.667Z,9.25
2022-11-13T12:20:19.254Z,9.35
2022-11-13T12:25:37.061Z,9.33
2022-11-13T12:31:15.811Z,9.36
2022-11-13T12:36:18.331Z,9.41
2022-11-13T12:41:30.099Z,9.38
2022-11-13T12:46:36.979Z,9.44
2022-11-13T12:51:40.431Z,9.47
2022-11-13T12:56:41.883Z,9.43
2022-11-13T13:02:01.207Z,9.51
2022-11-13T13:07:14.747Z,9.48
2022-11-13T13:12:31.219Z,9.52
2022-11-13T13:17:32.695Z,9.53
2022-11-13T13:22:35.704Z,9.56
2022-11-13T13:27:38.850Z,9.63
2022-11-13T13:33:18.647Z,9.65
2022-11-13T13:38:34.002Z,9.65
2022-11-13T13:43:57.800Z,9.65
2022-11-13T13:49:05.534Z,9.71
2022-11-13T13:54:09.449Z,9.83
2022-11-13T13:59:23.002Z,9.83
2022-11-13T14:04:27.072Z,9.81
2022-11-13T14:09:30.795Z,9.82
2022-11-13T14:14:32.864Z,9.73
2022-11-13T14:19:34.333Z,9.71
2022-11-13T14:24:48.598Z,9.68
2022-11-13T14:30:00.103Z,9.61
2022-11-13T14:35:05.301Z,9.60
2022-11-13T14:40:14.214Z,9.52
2022-11-13T14:45:17.671Z,9.54
2022-11-13T14:50:26.088Z,9.48
2022-11-13T14:55:33.697Z,9.35
2022-11-13T15:00:37.541Z,9.41
2022-11-13T15:05:38.971Z,9.34
2022-11-13T15:10:41.029Z,9.30
2022-11-13T15:15:43.062Z,9.17
2022-11-13T15:20:45.631Z,9.14
2022-11-13T15:25:47.065Z,9.10
2022-11-13T15:30:48.599Z,8.96
2022-11-13T15:35:50.049Z,8.86
2022-11-13T15:40:51.620Z,8.76
2022-11-13T15:45:53.031Z,8.78
2022-11-13T15:50:54.573Z,8.67
2022-11-13T15:55:56.071Z,8.62
2022-11-13T16:00:57.523Z,8.49
2022-11-13T16:05:59.630Z,8.42
2022-11-13T16:11:01.036Z,8.31
2022-11-13T16:16:02.580Z,8.22
2022-11-13T16:21:04.073Z,8.19
2022-11-13T16:26:06.318Z,8.05
2022-11-13T16:31:07.789Z,8.00
2022-11-13T16:36:18.485Z,8.01
2022-11-13T16:41:19.976Z,7.86
2022-11-13T16:46:35.809Z,7.83
2022-11-13T16:51:37.249Z,7.83
2022-11-13T16:56:38.776Z,7.72
2022-11-13T17:01:40.266Z,7.57
2022-11-13T17:06:41.887Z,7.52
2022-11-13T17:11:43.442Z,7.51
2022-11-13T17:16:44.866Z,7.37
2022-11-13T17:21:46.313Z,7.41
2022-11-13T17:26:47.749Z,7.29
2022-11-13T17:31:49.174Z,7.00
2022-11-13T17:36:50.683Z,7.03
2022-11-13T17:41:52.100Z,7.09
2022-11-13T17:46:53.556Z,6.95
2022-11-13T17:51:54.977Z,6.87
2022-11-13T17:56:56.411Z,6.87
2022-11-13T18:01:57.848Z,6.68
2022-11-13T18:06:59.533Z,6.65
2022-11-13T18:12:00.985Z,6.57
2022-11-13T18:17:02.553Z,6.62
2022-11-13T18:22:04.025Z,6.58
2022-11-13T18:27:06.311Z,6.26
2022-11-13T18:32:08.010Z,6.31
2022-11-13T18:37:09.490Z,6.24
2022-11-13T18:42:10.960Z,6.21
2022-11-13T18:47:12.359Z,6.21
2022-11-13T18:52:13.759Z,6.17
2022-11-13T18:57:15.386Z,5.91
2022-11-13T19:02:16.903Z,5.97
2022-11-13T19:07:18.448Z,5.87
2022-11-13T19:12:20.039Z,5.89
2022-11-13T19:17:21.513Z,5.93
2022-11-13T19:22:23.071Z,5.68
2022-11-13T19:27:24.527Z,5.69
2022-11-13T19:32:25.941Z,5.47
2022-11-13T19:37:27.396Z,5.42
2022-11-13T19:42:28.886Z,5.47
2022-11-13T19:47:30.453Z,5.56
2022-11-13T19:52:32.062Z,5.40
2022-11-13T19:57:33.485Z,5.48
2022-11-13T20:02:35.102Z,5.52
2022-11-13T20:07:36.690Z,5.46
2022-11-13T20:12:38.130Z,5.50
2022-11-13T20:17:39.568Z,5.45
2022-11-13T20:22:41.031Z,5.24
2022-11-13T20:27:47.145Z,5.13
2022-11-13T20:32:49.111Z,5.32
2022-11-13T20:37:50.574Z,5.28
2022-11-13T20:42:52.027Z,5.25
2022-11-13T20:47:53.472Z,5.28
2022-11-13T20:52:54.904Z,5.28
2022-11-13T20:57:56.845Z,5.12
2022-11-13T21:02:58.306Z,5.19
2022-11-13T21:07:59.909Z,5.20
2022-11-13T21:13:01.356Z,5.00
2022-11-13T21:18:02.996Z,5.14
2022-11-13T21:23:04.458Z,4.97
2022-11-13T21:28:06.369Z,5.02
2022-11-13T21:33:07.859Z,4.69
2022-11-13T21:38:09.363Z,4.75
2022-11-13T21:43:10.794Z,4.74
2022-11-13T21:48:12.256Z,4.63
2022-11-13T21:53:13.744Z,4.82
2022-11-13T21:58:15.199Z,4.76
2022-11-13T22:03:16.648Z,4.91
2022-11-13T22:08:18.126Z,4.91
2022-11-13T22:13:19.589Z,4.84
2022-11-13T22:18:21.282Z,4.60
2022-11-13T22:23:22.981Z,4.73
2022-11-13T22:28:24.405Z,4.77
2022-11-13T22:33:31.095Z,4.83
2022-11-13T22:38:36.750Z,4.65
2022-11-13T22:43:42.623Z,4.69
2022-11-13T22:48:44.887Z,4.69
2022-11-13T22:53:55.379Z,4.48
2022-11-13T22:58:58.953Z,4.49
2022-11-13T23:04:02.645Z,4.65
2022-11-13T23:09:05.912Z,4.51
2022-11-13T23:14:11.435Z,4.53
2022-11-13T23:19:13.135Z,4.59
2022-11-13T23:24:14.576Z,4.29
2022-11-13T23:29:15.950Z,4.48
2022-11-13T23:34:38.294Z,4.18
2022-11-13T23:39:38.793Z,4.39
2022-11-13T23:44:40.313Z,4.52
2022-11-13T23:49:41.766Z,4.42
2022-11-13T23:54:43.282Z,4.49
2022-11-13T23:59:44.714Z,4.57
